Time;durP1;ratioP1;P1;durP2;ratioP2;P2;SDS_P1;SDS_P2;PMS_P1;PMS_P2;Temp;Humidity;BMP_temperature;BMP_pressure;BME280_temperature;BME280_humidity;BME280_pressure;Samples;Min_cycle;Max_cycle;Signal;HPM_P1;HPM_P2
2023/06/14 00:00:13;;;;;;;8.38;4.47;;;;;;;13.24;82.71;100248.86;1638137;87;21046;-60
2023/06/14 00:02:42;;;;;;;8.55;4.75;;;;;;;13.25;82.77;100251.08;1637903;87;21038;-61
2023/06/14 00:05:14;;;;;;;9.05;4.70;;;;;;;13.23;82.83;100251.30;1638118;87;21069;-60
2023/06/14 00:07:43;;;;;;;10.10;4.90;;;;;;;13.23;82.85;100247.70;1638136;87;21034;-61
2023/06/14 00:10:12;;;;;;;8.80;4.53;;;;;;;13.21;82.99;100244.33;1638079;87;21544;-60
2023/06/14 00:12:42;;;;;;;9.20;5.08;;;;;;;13.19;83.07;100244.55;1637712;87;21138;-61
2023/06/14 00:15:10;;;;;;;6.65;4.70;;;;;;;13.19;83.21;100239.05;1637928;87;21581;-60
2023/06/14 00:17:40;;;;;;;10.70;4.92;;;;;;;13.21;83.30;100242.95;1637817;87;21006;-60
2023/06/14 00:20:11;;;;;;;8.80;5.17;;;;;;;13.21;83.17;100240.20;1638111;87;21086;-60
2023/06/14 00:22:40;;;;;;;9.58;5.00;;;;;;;13.19;82.99;100245.92;1637851;87;21097;-60
2023/06/14 00:25:08;;;;;;;8.90;4.87;;;;;;;13.16;83.06;100248.23;1637690;87;21046;-62
2023/06/14 00:27:38;;;;;;;10.32;5.35;;;;;;;13.14;83.28;100246.23;1638327;87;21034;-60
2023/06/14 00:30:09;;;;;;;12.95;5.03;;;;;;;13.12;83.37;100238.73;1637731;87;21153;-60
2023/06/14 00:32:38;;;;;;;13.05;5.62;;;;;;;13.09;83.50;100248.27;1638115;87;21077;-61
2023/06/14 00:35:07;;;;;;;10.55;4.83;;;;;;;13.05;83.81;100246.16;1637860;87;21069;-60
2023/06/14 00:37:37;;;;;;;8.13;5.15;;;;;;;13.03;84.12;100249.13;1637856;87;21938;-60
2023/06/14 00:40:07;;;;;;;10.43;5.72;;;;;;;12.99;84.28;100243.72;1638862;87;21073;-61
2023/06/14 00:42:35;;;;;;;9.15;5.60;;;;;;;12.96;84.55;100242.25;1642743;87;21101;-60
2023/06/14 00:45:04;;;;;;;8.75;4.92;;;;;;;12.98;84.69;100240.66;1644458;87;21034;-60
2023/06/14 00:47:32;;;;;;;7.33;5.10;;;;;;;12.96;84.76;100238.66;1644440;87;21533;-60
2023/06/14 00:50:01;;;;;;;11.45;5.03;;;;;;;12.93;84.90;100237.19;1644358;87;21097;-61
2023/06/14 00:52:32;;;;;;;8.10;5.55;;;;;;;12.92;85.08;100236.87;1644317;86;21571;-60
2023/06/14 00:55:00;;;;;;;8.38;5.30;;;;;;;12.94;85.27;100241.63;1644495;87;21454;-60
2023/06/14 00:57:31;;;;;;;7.95;5.05;;;;;;;12.95;85.23;100250.19;1644298;87;21563;-60
2023/06/14 01:00:00;;;;;;;7.80;4.78;;;;;;;12.98;85.31;100257.16;1644519;86;21105;-61
2023/06/14 01:02:28;;;;;;;8.33;5.45;;;;;;;13.02;85.32;100252.95;1644381;87;21085;-61
2023/06/14 01:05:00;;;;;;;8.05;5.22;;;;;;;13.07;85.28;100257.80;1644444;86;21120;-60
2023/06/14 01:07:37;;;;;;;8.48;5.25;;;;;;;13.08;85.23;100253.98;1644450;86;21540;-61
2023/06/14 01:10:32;;;;;;;7.80;4.65;;;;;;;13.10;85.20;100247.73;1644694;87;21045;-60
2023/06/14 01:13:24;;;;;;;6.60;5.05;;;;;;;13.12;85.19;100250.58;1644557;87;21058;-61
2023/06/14 01:15:52;;;;;;;8.80;5.08;;;;;;;13.13;85.31;100249.52;1633126;87;21073;-60
2023/06/14 01:18:24;;;;;;;10.25;5.17;;;;;;;13.13;85.32;100248.67;1644603;87;21264;-61
2023/06/14 01:20:55;;;;;;;8.55;4.58;;;;;;;13.11;85.33;100246.67;1643743;87;21071;-60
2023/06/14 01:23:32;;;;;;;7.00;4.58;;;;;;;13.12;85.44;100249.73;1644431;86;21556;-60
2023/06/14 01:25:57;;;;;;;13.25;5.90;;;;;;;13.14;85.47;100255.86;1644676;86;21014;-60
2023/06/14 01:28:31;;;;;;;8.83;5.30;;;;;;;13.10;85.35;100245.83;1644745;86;21081;-61
2023/06/14 01:31:00;;;;;;;7.15;4.95;;;;;;;13.07;85.53;100244.88;1642606;87;21560;-60
2023/06/14 01:33:29;;;;;;;8.60;5.40;;;;;;;13.07;85.74;100239.91;1636271;87;21062;-61
2023/06/14 01:35:59;;;;;;;10.15;4.90;;;;;;;13.09;85.83;100237.79;1651623;87;21088;-60
2023/06/14 01:38:30;;;;;;;8.88;4.78;;;;;;;13.10;85.77;100242.23;1651497;86;21539;-60
2023/06/14 01:40:59;;;;;;;9.00;5.12;;;;;;;13.07;85.81;100240.76;1624847;87;21119;-61
2023/06/14 01:43:29;;;;;;;7.92;4.85;;;;;;;13.07;85.97;100246.26;1647641;87;21044;-61
2023/06/14 01:45:57;;;;;;;9.45;4.83;;;;;;;13.07;86.04;100233.88;1661662;86;21043;-60
2023/06/14 01:48:27;;;;;;;8.48;4.92;;;;;;;13.08;86.02;100240.23;1710097;84;21051;-61
2023/06/14 01:50:57;;;;;;;9.38;5.10;;;;;;;13.06;86.06;100240.45;1704255;84;21059;-60
2023/06/14 01:53:27;;;;;;;9.05;5.17;;;;;;;13.07;86.08;100238.54;1699788;84;21047;-60
2023/06/14 01:55:56;;;;;;;8.70;5.03;;;;;;;13.07;86.10;100238.54;1699960;84;21028;-60
2023/06/14 01:58:25;;;;;;;9.68;5.08;;;;;;;13.06;86.11;100236.84;1699835;84;21043;-61
2023/06/14 02:00:55;;;;;;;6.60;5.10;;;;;;;13.04;86.13;100238.97;1699904;84;21031;-60
2023/06/14 02:03:24;;;;;;;8.13;4.83;;;;;;;13.01;86.29;100233.37;1699802;84;21047;-60
2023/06/14 02:05:55;;;;;;;8.93;4.92;;;;;;;12.99;86.46;100240.44;1699695;84;21016;-62
2023/06/14 02:08:23;;;;;;;8.20;4.65;;;;;;;12.99;86.53;100241.81;1699613;84;21016;-62
2023/06/14 02:10:52;;;;;;;9.83;6.45;;;;;;;12.98;86.47;100229.12;1699633;84;21067;-61
2023/06/14 02:13:22;;;;;;;7.35;4.80;;;;;;;12.99;86.43;100231.34;1699864;84;21067;-61
2023/06/14 02:15:54;;;;;;;6.95;4.65;;;;;;;12.94;86.45;100225.12;1699950;84;21522;-60
2023/06/14 02:18:23;;;;;;;10.32;5.00;;;;;;;12.88;86.72;100232.02;1699650;84;21056;-61
2023/06/14 02:20:52;;;;;;;9.33;5.37;;;;;;;12.85;87.06;100234.67;1699842;84;21032;-61
2023/06/14 02:23:21;;;;;;;8.00;5.00;;;;;;;12.84;87.37;100221.14;1699675;84;21059;-60
2023/06/14 02:25:52;;;;;;;9.63;5.50;;;;;;;12.88;87.63;100228.74;1699736;84;21027;-62
2023/06/14 02:28:21;;;;;;;8.88;5.15;;;;;;;12.92;87.66;100230.53;1699695;84;21088;-60
2023/06/14 02:30:50;;;;;;;12.30;5.87;;;;;;;12.94;87.61;100237.50;1699936;84;21079;-61
2023/06/14 02:33:18;;;;;;;12.10;5.92;;;;;;;13.00;87.64;100232.53;1699683;84;21067;-59
2023/06/14 02:35:47;;;;;;;11.48;5.45;;;;;;;13.03;87.50;100231.25;1699687;84;21031;-60
2023/06/14 02:38:17;;;;;;;9.15;5.35;;;;;;;13.07;87.63;100229.76;1699901;84;21079;-59
2023/06/14 02:40:46;;;;;;;8.95;4.80;;;;;;;13.12;87.55;100231.32;1687059;84;21471;-62
2023/06/14 02:43:17;;;;;;;10.08;5.00;;;;;;;13.14;87.39;100228.35;1668126;86;21084;-60
2023/06/14 02:45:45;;;;;;;7.97;4.92;;;;;;;13.17;87.27;100238.42;1668695;86;21023;-61
2023/06/14 02:48:16;;;;;;;8.23;5.08;;;;;;;13.20;87.20;100228.88;1671424;86;21028;-61
2023/06/14 02:50:45;;;;;;;9.33;5.62;;;;;;;13.22;87.14;100233.64;1671289;86;21059;-61
2023/06/14 02:53:15;;;;;;;9.53;5.40;;;;;;;13.20;87.05;100234.39;1670433;86;21060;-60
2023/06/14 02:55:44;;;;;;;13.75;6.08;;;;;;;13.16;87.12;100242.73;1672129;86;21099;-60
2023/06/14 02:58:13;;;;;;;11.00;6.00;;;;;;;13.17;87.36;100248.58;1668397;86;21044;-60
2023/06/14 03:00:42;;;;;;;9.93;5.83;;;;;;;13.20;87.47;100248.14;1668123;85;21079;-61
2023/06/14 03:03:16;;;;;;;9.95;5.85;;;;;;;13.25;87.64;100246.42;1667967;85;21104;-61
2023/06/14 03:05:49;;;;;;;11.05;5.90;;;;;;;13.33;87.79;100245.33;1668132;86;21037;-60
2023/06/14 03:08:19;;;;;;;9.43;5.97;;;;;;;13.42;87.81;100250.05;1650043;86;21115;-62
2023/06/14 03:10:50;;;;;;;11.65;6.17;;;;;;;13.48;87.82;100249.16;1668047;86;21095;-60
2023/06/14 03:13:22;;;;;;;9.70;5.92;;;;;;;13.53;87.78;100251.56;1667948;86;21084;-60
2023/06/14 03:15:56;;;;;;;9.48;5.90;;;;;;;13.58;87.70;100253.13;1668065;86;21076;-61
2023/06/14 03:18:24;;;;;;;11.22;5.35;;;;;;;13.67;87.57;100248.23;1667934;86;21076;-62
2023/06/14 03:20:56;;;;;;;9.93;6.20;;;;;;;13.76;87.32;100251.56;1667915;86;21052;-60
2023/06/14 03:23:26;;;;;;;8.55;5.65;;;;;;;13.81;87.10;100254.49;1668011;86;21060;-61
2023/06/14 03:25:54;;;;;;;11.25;5.50;;;;;;;13.88;86.85;100253.38;1668073;85;21036;-60
2023/06/14 03:28:24;;;;;;;7.85;5.30;;;;;;;13.90;86.67;100249.87;1671452;86;21052;-61
2023/06/14 03:30:53;;;;;;;11.08;5.62;;;;;;;13.92;86.54;100255.16;1667874;86;21079;-61
2023/06/14 03:33:22;;;;;;;10.58;6.12;;;;;;;13.93;86.46;100259.59;1668142;86;21517;-60
2023/06/14 03:35:51;;;;;;;10.00;5.90;;;;;;;13.95;86.39;100257.45;1668139;86;21044;-61
2023/06/14 03:38:20;;;;;;;11.95;5.92;;;;;;;14.00;86.39;100253.50;1668128;85;21067;-61
2023/06/14 03:40:49;;;;;;;9.70;6.03;;;;;;;14.07;86.34;100259.80;1667853;84;21060;-60
2023/06/14 03:43:17;;;;;;;8.73;5.75;;;;;;;14.15;86.17;100257.30;1667964;85;21052;-61
2023/06/14 03:45:46;;;;;;;13.43;5.87;;;;;;;14.22;85.93;100263.06;1667901;85;21036;-62
2023/06/14 03:48:16;;;;;;;11.05;6.15;;;;;;;14.29;85.73;100255.58;1667982;85;21043;-60
2023/06/14 03:50:45;;;;;;;9.65;5.87;;;;;;;14.36;85.47;100257.47;1668045;86;21111;-61
2023/06/14 03:53:13;;;;;;;15.83;6.22;;;;;;;14.41;85.38;100257.64;1667902;86;21123;-62
2023/06/14 03:55:44;;;;;;;8.58;6.08;;;;;;;14.47;85.21;100259.52;1668573;85;21162;-61
2023/06/14 03:58:16;;;;;;;11.08;6.20;;;;;;;14.53;84.92;100259.45;1668395;86;21059;-61
2023/06/14 04:00:45;;;;;;;12.65;5.87;;;;;;;14.58;84.72;100248.59;1668549;85;21089;-60
2023/06/14 04:03:15;;;;;;;10.88;5.87;;;;;;;14.63;84.60;100253.41;1668555;85;21192;-61
2023/06/14 04:05:44;;;;;;;11.68;4.53;;;;;;;14.67;84.54;100251.89;1668068;85;21075;-62
2023/06/14 04:08:14;;;;;;;10.65;5.62;;;;;;;14.73;84.47;100259.78;1668186;86;21044;-61
2023/06/14 04:10:43;;;;;;;8.43;4.92;;;;;;;14.79;84.32;100259.71;1667862;85;21059;-61
2023/06/14 04:13:13;;;;;;;8.43;4.10;;;;;;;14.85;84.23;100257.95;1668075;86;21048;-61
2023/06/14 04:15:42;;;;;;;8.85;3.90;;;;;;;14.93;84.18;100256.80;1667867;86;21076;-61
2023/06/14 04:18:10;;;;;;;7.53;3.77;;;;;;;15.02;84.06;100254.08;1668197;86;21099;-61
2023/06/14 04:20:41;;;;;;;9.05;4.15;;;;;;;15.10;83.85;100251.85;1667980;86;21088;-62
2023/06/14 04:23:17;;;;;;;11.83;4.58;;;;;;;15.20;83.67;100254.06;1668126;86;21502;-61
2023/06/14 04:25:47;;;;;;;11.83;4.08;;;;;;;15.28;83.50;100244.63;1668410;85;21051;-62
2023/06/14 04:28:17;;;;;;;11.43;3.92;;;;;;;15.38;83.32;100249.05;1667985;85;21092;-61
2023/06/14 04:30:47;;;;;;;5.87;3.80;;;;;;;15.45;83.06;100254.80;1668159;85;21099;-61
2023/06/14 04:33:17;;;;;;;7.87;4.00;;;;;;;15.53;82.69;100248.10;1668343;86;21496;-61
2023/06/14 04:35:47;;;;;;;8.83;4.22;;;;;;;15.60;82.08;100245.27;1668142;85;21194;-61
2023/06/14 04:38:18;;;;;;;9.48;4.53;;;;;;;15.68;81.56;100247.73;1671400;86;21075;-61
2023/06/14 04:40:47;;;;;;;9.15;4.20;;;;;;;15.74;81.19;100250.41;1666758;86;22165;-59
2023/06/14 04:43:24;;;;;;;11.30;4.00;;;;;;;15.81;80.83;100242.02;1625173;88;21064;-61
2023/06/14 04:45:49;;;;;;;7.92;4.00;;;;;;;15.88;80.37;100247.44;1624654;87;21088;-61
2023/06/14 04:48:20;;;;;;;11.43;5.10;;;;;;;15.95;80.15;100246.80;1669994;84;21551;-60
2023/06/14 04:50:52;;;;;;;10.15;4.83;;;;;;;16.03;79.97;100247.84;1668178;85;21079;-61
2023/06/14 04:53:22;;;;;;;8.30;3.95;;;;;;;16.10;79.51;100239.73;1626503;88;21087;-62
2023/06/14 04:55:53;;;;;;;6.33;3.50;;;;;;;16.22;79.03;100232.84;1668206;86;21087;-61
2023/06/14 04:58:22;;;;;;;7.78;3.98;;;;;;;16.39;78.29;100241.30;1625739;88;21569;-60
2023/06/14 05:00:51;;;;;;;6.50;4.05;;;;;;;16.58;77.04;100240.09;1626352;88;21146;-60
2023/06/14 05:03:20;;;;;;;6.20;4.05;;;;;;;16.81;76.24;100236.50;1633878;88;21353;-61
2023/06/14 05:05:53;;;;;;;10.53;4.60;;;;;;;17.08;74.30;100234.91;1633484;87;21047;-61
2023/06/14 05:08:23;;;;;;;6.87;3.70;;;;;;;17.33;73.56;100233.22;1668311;85;21056;-60
2023/06/14 05:10:54;;;;;;;8.45;4.28;;;;;;;17.63;72.41;100233.00;1629677;87;21059;-60
2023/06/14 05:13:23;;;;;;;12.73;4.58;;;;;;;17.90;71.47;100222.16;1636882;87;21063;-61
2023/06/14 05:15:53;;;;;;;10.43;4.30;;;;;;;18.18;70.39;100214.32;1633894;88;21016;-61
2023/06/14 05:18:22;;;;;;;6.75;3.77;;;;;;;18.46;69.97;100218.11;1633896;88;21115;-61
2023/06/14 05:20:51;;;;;;;10.30;4.80;;;;;;;18.69;68.17;100220.17;1630428;88;21432;-61
2023/06/14 05:23:20;;;;;;;8.65;4.12;;;;;;;18.91;66.49;100224.39;1628844;86;21503;-61
2023/06/14 05:25:49;;;;;;;6.40;4.17;;;;;;;19.12;65.81;100226.89;1625872;88;21110;-61
2023/06/14 05:28:17;;;;;;;6.83;3.80;;;;;;;19.32;64.29;100223.52;1628711;88;21060;-60
2023/06/14 05:30:46;;;;;;;7.47;3.92;;;;;;;19.53;63.52;100219.09;1625358;88;21087;-61
2023/06/14 05:33:15;;;;;;;6.65;3.95;;;;;;;19.77;62.76;100221.86;1666132;86;21048;-61
2023/06/14 05:35:44;;;;;;;7.97;3.62;;;;;;;20.06;61.37;100223.80;1666024;85;21099;-61
2023/06/14 05:38:13;;;;;;;6.87;3.90;;;;;;;20.30;59.44;100221.53;1668232;85;21480;-61
2023/06/14 05:40:42;;;;;;;5.25;3.75;;;;;;;20.45;58.24;100223.06;1668057;86;21084;-61
2023/06/14 05:43:10;;;;;;;5.55;4.05;;;;;;;20.56;57.86;100220.64;1674541;84;21052;-61
2023/06/14 05:45:40;;;;;;;8.25;4.50;;;;;;;20.71;57.01;100219.90;1704822;84;21031;-61
2023/06/14 05:48:08;;;;;;;5.42;3.90;;;;;;;20.86;56.21;100220.58;1704497;84;21011;-60
2023/06/14 05:50:37;;;;;;;6.45;3.90;;;;;;;20.98;55.99;100223.98;1670337;86;21036;-61
2023/06/14 05:53:06;;;;;;;10.80;5.08;;;;;;;21.21;55.61;100227.71;1644391;87;21501;-61
2023/06/14 05:55:36;;;;;;;7.62;4.10;;;;;;;21.44;54.35;100231.17;1645637;87;21093;-62
2023/06/14 05:58:06;;;;;;;9.60;4.12;;;;;;;21.52;54.49;100226.49;1646407;87;21117;-61
2023/06/14 06:00:35;;;;;;;6.15;3.50;;;;;;;21.72;53.72;100234.91;1646439;87;21086;-63
2023/06/14 06:03:04;;;;;;;9.50;4.30;;;;;;;21.89;53.63;100237.45;1646187;87;21101;-61
2023/06/14 06:05:33;;;;;;;5.90;3.80;;;;;;;22.18;53.27;100235.03;1646104;87;21053;-62
2023/06/14 06:08:01;;;;;;;6.75;3.87;;;;;;;22.54;52.49;100232.23;1646315;87;21066;-62
2023/06/14 06:10:30;;;;;;;8.88;3.90;;;;;;;22.89;51.65;100234.18;1646181;87;21101;-62
2023/06/14 06:13:00;;;;;;;13.08;5.87;;;;;;;23.17;50.21;100222.91;1648280;87;21125;-61
2023/06/14 06:15:29;;;;;;;9.30;3.50;;;;;;;23.36;48.94;100226.74;1649086;87;21069;-61
2023/06/14 06:17:57;;;;;;;5.67;3.55;;;;;;;23.47;49.09;100225.59;1648967;87;21041;-61
2023/06/14 06:20:28;;;;;;;5.72;3.40;;;;;;;23.55;48.44;100225.59;1648982;87;21065;-63
2023/06/14 06:22:58;;;;;;;5.53;3.83;;;;;;;23.67;48.94;100228.88;1647900;87;21458;-61
2023/06/14 06:25:27;;;;;;;7.28;3.75;;;;;;;23.83;49.10;100228.22;1646772;87;21085;-62
2023/06/14 06:27:57;;;;;;;5.83;3.15;;;;;;;24.07;47.59;100232.00;1646537;87;21077;-60
2023/06/14 06:30:26;;;;;;;5.12;2.95;;;;;;;24.10;46.64;100230.02;1646681;87;21089;-62
2023/06/14 06:32:58;;;;;;;7.17;3.60;;;;;;;24.15;47.09;100231.94;1646441;87;21050;-62
2023/06/14 06:35:27;;;;;;;5.10;3.12;;;;;;;24.23;46.74;100230.75;1646644;87;21499;-62
2023/06/14 06:37:55;;;;;;;7.47;3.22;;;;;;;24.16;46.33;100228.85;1646176;87;21046;-62
2023/06/14 06:40:25;;;;;;;8.08;3.90;;;;;;;24.16;45.76;100226.61;1646374;87;21169;-61
2023/06/14 06:42:54;;;;;;;5.28;2.90;;;;;;;24.19;45.94;100220.43;1642801;87;21484;-61
2023/06/14 06:45:24;;;;;;;10.30;3.58;;;;;;;24.26;46.04;100221.77;1642236;87;21099;-65
2023/06/14 06:47:53;;;;;;;8.35;3.90;;;;;;;24.22;45.83;100220.68;1642069;87;21187;-61
2023/06/14 06:50:25;;;;;;;9.70;4.40;;;;;;;24.17;46.44;100227.72;1642178;87;21032;-60
2023/06/14 06:52:54;;;;;;;8.28;3.02;;;;;;;24.18;46.13;100218.75;1641883;87;21131;-61
2023/06/14 06:55:23;;;;;;;5.85;2.77;;;;;;;24.16;45.60;100218.22;1641972;87;21175;-62
2023/06/14 06:57:53;;;;;;;5.45;2.70;;;;;;;24.09;44.74;100219.95;1642033;87;21056;-61
2023/06/14 07:00:23;;;;;;;5.28;2.72;;;;;;;23.97;45.20;100211.05;1642064;87;21144;-62
2023/06/14 07:02:54;;;;;;;9.68;2.80;;;;;;;23.84;45.00;100215.91;1641851;87;21151;-62
2023/06/14 07:05:24;;;;;;;11.18;3.30;;;;;;;23.67;45.78;100214.89;1641971;87;21191;-61
2023/06/14 07:07:54;;;;;;;4.12;2.40;;;;;;;23.54;46.09;100205.14;1642102;87;21036;-62
2023/06/14 07:10:24;;;;;;;6.15;2.87;;;;;;;23.53;46.17;100215.22;1642084;87;21078;-62
2023/06/14 07:12:53;;;;;;;4.25;2.70;;;;;;;23.58;45.93;100212.42;1641918;87;21040;-62
2023/06/14 07:15:22;;;;;;;8.33;3.20;;;;;;;23.64;46.10;100211.27;1642298;87;21028;-61
2023/06/14 07:17:51;;;;;;;4.35;2.10;;;;;;;23.68;45.96;100212.37;1642219;87;21520;-62
2023/06/14 07:20:24;;;;;;;3.83;2.55;;;;;;;23.80;46.16;100213.41;1642035;87;21504;-63
2023/06/14 07:22:52;;;;;;;5.30;2.70;;;;;;;23.90;45.90;100219.77;1641924;87;21103;-62
2023/06/14 07:25:22;;;;;;;9.25;2.90;;;;;;;23.94;46.23;100214.43;1641967;87;21088;-62
2023/06/14 07:27:50;;;;;;;8.43;3.70;;;;;;;23.95;46.68;100211.34;1642045;87;21534;-62
2023/06/14 07:30:20;;;;;;;5.50;3.17;;;;;;;24.00;46.92;100210.47;1641891;87;21204;-63
2023/06/14 07:32:50;;;;;;;8.15;3.52;;;;;;;24.12;46.93;100216.56;1641787;87;21666;-61
2023/06/14 07:35:19;;;;;;;6.87;2.98;;;;;;;24.30;46.65;100208.88;1642361;87;21086;-61
2023/06/14 07:37:49;;;;;;;6.72;3.08;;;;;;;24.55;46.62;100205.58;1641994;87;21052;-62
2023/06/14 07:40:18;;;;;;;6.75;3.10;;;;;;;24.73;46.78;100206.25;1641991;87;21036;-64
2023/06/14 07:42:50;;;;;;;7.22;3.55;;;;;;;24.91;46.38;100215.30;1641901;87;21124;-61
2023/06/14 07:45:19;;;;;;;12.00;4.25;;;;;;;25.02;46.55;100211.02;1641809;87;21076;-63
2023/06/14 07:47:47;;;;;;;7.05;3.50;;;;;;;25.33;46.60;100211.47;1641874;87;21124;-62
2023/06/14 07:50:16;;;;;;;7.50;3.70;;;;;;;25.54;46.09;100209.52;1638238;87;21520;-62
2023/06/14 07:52:48;;;;;;;3.60;3.10;;;;;;;25.71;45.15;100209.61;1682016;84;21046;-62
2023/06/14 07:55:18;;;;;;;5.90;3.67;;;;;;;25.74;45.24;100207.59;1689529;85;21092;-61
2023/06/14 07:57:48;;;;;;;7.55;3.25;;;;;;;25.91;44.96;100209.30;1690049;85;21526;-62
2023/06/14 08:00:19;;;;;;;9.05;6.15;;;;;;;25.90;44.69;100210.44;1656039;86;21130;-63
2023/06/14 08:02:49;;;;;;;6.85;3.80;;;;;;;25.90;45.04;100207.63;1689765;85;21061;-64
2023/06/14 08:05:28;;;;;;;9.03;3.40;;;;;;;26.06;45.02;100206.28;1652511;85;21138;-64
2023/06/14 08:08:00;;;;;;;6.05;3.47;;;;;;;26.17;44.79;100200.76;1634512;87;21097;-65
2023/06/14 08:10:29;;;;;;;6.15;3.15;;;;;;;26.30;43.90;100208.14;1684110;85;21066;-64
2023/06/14 08:13:00;;;;;;;7.53;3.30;;;;;;;26.20;44.43;100204.36;1656354;86;21621;-63
2023/06/14 08:15:30;;;;;;;6.97;3.90;;;;;;;26.21;44.72;100203.78;1689712;85;21042;-64
2023/06/14 08:18:01;;;;;;;4.65;3.35;;;;;;;26.34;43.99;100200.80;1656284;86;21110;-64
2023/06/14 08:20:31;;;;;;;9.18;3.75;;;;;;;26.55;43.72;100203.50;1689840;85;21446;-63
2023/06/14 08:23:04;;;;;;;6.15;3.60;;;;;;;26.67;43.42;100202.47;1656213;86;21109;-64
2023/06/14 08:25:33;;;;;;;7.30;3.75;;;;;;;26.76;42.46;100192.17;1689287;84;21034;-64
2023/06/14 08:28:02;;;;;;;7.55;3.30;;;;;;;26.75;42.72;100186.86;1689825;85;21446;-64
2023/06/14 08:30:30;;;;;;;8.38;3.65;;;;;;;26.81;42.54;100187.02;1656451;86;21070;-63
2023/06/14 08:32:59;;;;;;;6.05;3.62;;;;;;;26.91;42.65;100189.63;1689850;85;21276;-62
2023/06/14 08:35:31;;;;;;;10.98;3.62;;;;;;;27.04;42.28;100196.44;1656498;86;21086;-64
2023/06/14 08:37:59;;;;;;;8.10;3.70;;;;;;;27.07;41.73;100195.81;1689732;85;21458;-63
2023/06/14 08:40:28;;;;;;;8.70;4.05;;;;;;;27.04;41.90;100196.44;1690341;85;21434;-63
2023/06/14 08:42:56;;;;;;;8.30;3.67;;;;;;;27.13;41.95;100194.56;1654212;85;21079;-63
2023/06/14 08:45:25;;;;;;;5.55;3.27;;;;;;;27.10;41.65;100193.20;1652132;87;21443;-63
2023/06/14 08:47:59;;;;;;;5.03;3.35;;;;;;;26.98;42.22;100187.27;1652117;86;21095;-62
2023/06/14 08:50:31;;;;;;;8.78;3.65;;;;;;;26.98;42.22;100187.27;1652284;87;21011;-64
2023/06/14 08:53:02;;;;;;;4.72;3.33;;;;;;;26.98;42.14;100194.30;1652102;86;21011;-64
2023/06/14 08:55:38;;;;;;;12.75;5.55;;;;;;;27.06;42.42;100192.74;1652288;87;21039;-64
2023/06/14 08:58:09;;;;;;;5.28;3.30;;;;;;;27.20;41.63;100192.16;1652132;85;21145;-64
2023/06/14 09:00:38;;;;;;;8.38;3.77;;;;;;;27.25;41.41;100183.61;1644508;87;21119;-66
2023/06/14 09:03:13;;;;;;;6.17;3.42;;;;;;;27.32;41.42;100186.87;1613574;88;21072;-63
2023/06/14 09:05:38;;;;;;;5.37;3.20;;;;;;;27.32;41.16;100182.64;1614550;87;21072;-62
2023/06/14 09:08:07;;;;;;;5.58;3.42;;;;;;;27.28;41.65;100184.39;1636111;88;21048;-64
2023/06/14 09:10:37;;;;;;;8.78;3.75;;;;;;;27.26;41.01;100183.88;1645637;87;21091;-64
2023/06/14 09:13:07;;;;;;;5.55;4.22;;;;;;;27.16;41.88;100184.09;1644790;87;21488;-63
2023/06/14 09:15:38;;;;;;;8.28;3.02;;;;;;;27.11;41.65;100182.22;1609569;88;21056;-64
2023/06/14 09:18:06;;;;;;;8.83;3.60;;;;;;;27.05;41.71;100184.05;1612486;88;21067;-65
2023/06/14 09:20:35;;;;;;;5.00;3.20;;;;;;;26.97;42.10;100177.70;1640327;87;21492;-64
2023/06/14 09:23:05;;;;;;;6.72;3.33;;;;;;;26.81;42.27;100162.55;1642697;86;21060;-64
2023/06/14 09:25:46;;;;;;;8.40;3.52;;;;;;;26.81;42.27;100162.55;1642754;87;21079;-65
2023/06/14 09:28:15;;;;;;;5.70;3.47;;;;;;;26.71;42.45;100168.38;1642517;87;21492;-65
2023/06/14 09:30:44;;;;;;;5.25;3.12;;;;;;;26.41;42.74;100159.92;1616647;88;21028;-62
2023/06/14 09:33:18;;;;;;;5.53;3.72;;;;;;;26.41;42.74;100159.92;1639633;87;21123;-65
2023/06/14 09:35:52;;;;;;;3.72;3.10;;;;;;;26.30;43.32;100167.41;1616770;88;21495;-63
2023/06/14 09:38:22;;;;;;;10.70;3.60;;;;;;;26.23;43.53;100170.04;1618101;88;21150;-65
2023/06/14 09:40:51;;;;;;;6.30;3.30;;;;;;;26.16;43.54;100163.15;1615994;88;21055;-64
2023/06/14 09:43:21;;;;;;;7.08;3.42;;;;;;;26.11;43.75;100157.05;1654346;85;21118;-62
2023/06/14 09:45:49;;;;;;;6.25;3.65;;;;;;;26.04;44.03;100153.80;1659370;86;21487;-64
2023/06/14 09:48:19;;;;;;;8.85;4.42;;;;;;;25.98;44.28;100162.59;1638324;86;21112;-65
2023/06/14 09:50:48;;;;;;;9.00;3.60;;;;;;;25.89;44.11;100156.83;1658434;86;21055;-65
2023/06/14 09:53:22;;;;;;;5.03;3.35;;;;;;;25.80;44.51;100169.31;1627448;88;21052;-65
2023/06/14 09:55:51;;;;;;;6.97;3.80;;;;;;;25.66;45.18;100163.38;1629320;86;21103;-65
2023/06/14 09:58:21;;;;;;;9.13;3.83;;;;;;;25.48;45.12;100164.44;1628127;87;21534;-62
2023/06/14 10:00:51;;;;;;;5.17;3.50;;;;;;;25.38;45.45;100169.36;1652320;87;21089;-65
2023/06/14 10:03:29;;;;;;;6.85;3.50;;;;;;;25.37;45.94;100166.28;1666497;85;21537;-63
2023/06/14 10:06:01;;;;;;;9.05;3.67;;;;;;;25.44;46.18;100166.75;1663909;85;21466;-66
2023/06/14 10:08:33;;;;;;;6.75;3.55;;;;;;;25.48;46.36;100168.64;1652966;85;21213;-64
2023/06/14 10:11:02;;;;;;;7.85;3.33;;;;;;;25.52;45.68;100168.88;1694511;85;21516;-63
2023/06/14 10:13:33;;;;;;;8.38;3.80;;;;;;;25.47;45.66;100162.77;1694812;83;21024;-64
2023/06/14 10:16:19;;;;;;;7.15;3.70;;;;;;;25.42;45.63;100168.45;1694583;85;21455;-64
2023/06/14 10:19:23;;;;;;;7.00;3.83;;;;;;;25.39;46.31;100166.25;1694424;84;21112;-63
2023/06/14 10:22:12;;;;;;;8.28;3.37;;;;;;;25.31;46.49;100165.49;1694764;84;21071;-63
2023/06/14 10:24:43;;;;;;;6.15;3.52;;;;;;;25.30;46.77;100168.03;1694937;84;21012;-62
2023/06/14 10:27:14;;;;;;;5.55;3.33;;;;;;;25.34;46.91;100166.86;1694960;84;21039;-63
2023/06/14 10:29:58;;;;;;;9.23;3.85;;;;;;;25.39;46.07;100162.61;1694937;84;21055;-62
2023/06/14 10:32:30;;;;;;;5.53;3.85;;;;;;;25.34;46.15;100165.45;1692851;84;21058;-65
2023/06/14 10:35:01;;;;;;;5.78;3.33;;;;;;;25.25;47.16;100167.53;1695032;85;21118;-64
2023/06/14 10:37:30;;;;;;;10.70;4.00;;;;;;;25.24;47.01;100163.06;1694659;84;21070;-64
2023/06/14 10:39:59;;;;;;;6.25;3.62;;;;;;;25.28;47.15;100164.69;1694703;84;21027;-65
2023/06/14 10:42:33;;;;;;;5.95;3.55;;;;;;;25.28;47.18;100164.69;1693961;85;21092;-63
2023/06/14 10:45:01;;;;;;;6.08;3.52;;;;;;;25.27;47.14;100161.63;1653932;85;21082;-64
2023/06/14 10:47:34;;;;;;;6.12;3.55;;;;;;;25.25;47.41;100159.69;1652027;87;21268;-62
2023/06/14 10:50:09;;;;;;;6.65;3.65;;;;;;;25.25;47.26;100148.47;1650938;86;21457;-63
2023/06/14 10:52:43;;;;;;;6.97;3.77;;;;;;;25.30;47.34;100155.41;1651972;87;21475;-64
2023/06/14 10:55:17;;;;;;;11.45;4.00;;;;;;;25.37;47.47;100160.11;1651936;86;21036;-62
2023/06/14 10:57:55;;;;;;;8.43;3.60;;;;;;;25.38;47.28;100150.55;1652219;87;21638;-63
2023/06/14 11:00:26;;;;;;;11.55;4.42;;;;;;;25.43;47.44;100154.69;1630901;87;21044;-65
2023/06/14 11:03:16;;;;;;;6.92;3.87;;;;;;;25.44;47.20;100160.57;1599576;88;21532;-63
2023/06/14 11:05:54;;;;;;;7.33;3.45;;;;;;;25.40;47.12;100164.28;1601867;89;21040;-63
2023/06/14 11:08:53;;;;;;;6.40;3.33;;;;;;;25.30;46.96;100166.63;1601437;89;21100;-65
2023/06/14 11:11:23;;;;;;;8.38;3.87;;;;;;;25.19;47.43;100160.32;1599424;89;21087;-64
2023/06/14 11:13:53;;;;;;;9.75;3.75;;;;;;;25.06;47.54;100149.00;1628297;88;21103;-64
2023/06/14 11:16:22;;;;;;;7.62;4.12;;;;;;;24.95;47.93;100153.30;1584441;88;21202;-64
2023/06/14 11:18:51;;;;;;;5.20;3.90;;;;;;;24.90;48.82;100149.73;1589315;89;21091;-63
2023/06/14 11:21:20;;;;;;;9.28;3.85;;;;;;;24.86;48.82;100153.70;1599612;89;21072;-61
2023/06/14 11:23:52;;;;;;;9.25;4.30;;;;;;;24.87;48.86;100148.36;1597445;90;21148;-63
2023/06/14 11:26:29;;;;;;;8.75;4.03;;;;;;;24.88;48.59;100145.83;1588698;89;21092;-63
2023/06/14 11:28:59;;;;;;;9.50;4.10;;;;;;;24.88;48.46;100144.99;1602029;89;21511;-63
2023/06/14 11:31:28;;;;;;;8.03;4.00;;;;;;;24.94;48.83;100154.44;1628159;88;21036;-63
2023/06/14 11:33:58;;;;;;;8.30;3.35;;;;;;;24.98;48.62;100156.67;1599722;88;21087;-64
2023/06/14 11:36:31;;;;;;;8.28;3.37;;;;;;;24.92;48.53;100155.30;1599906;88;21127;-62
2023/06/14 11:39:07;;;;;;;6.50;3.87;;;;;;;24.89;48.68;100161.51;1599444;89;21076;-63